createdAt,value
2023-05-10T00:04:47.611Z,4.32
2023-05-10T00:12:06.280Z,4.35
2023-05-10T00:19:24.569Z,4.88
2023-05-10T00:26:44.775Z,4.35
2023-05-10T00:34:03.543Z,5.15
2023-05-10T00:41:22.337Z,4.40
2023-05-10T00:48:42.632Z,4.70
2023-05-10T00:56:01.407Z,4.65
2023-05-10T01:03:19.691Z,4.88
2023-05-10T01:10:41.425Z,4.30
2023-05-10T01:17:59.950Z,5.00
2023-05-10T01:25:35.016Z,5.15
2023-05-10T01:32:58.786Z,4.88
2023-05-10T01:40:22.610Z,4.93
2023-05-10T01:47:43.006Z,5.50
2023-05-10T01:55:04.765Z,4.88
2023-05-10T02:02:23.730Z,5.03
2023-05-10T02:09:42.983Z,5.43
2023-05-10T02:17:03.648Z,5.03
2023-05-10T02:24:22.671Z,4.70
2023-05-10T02:31:44.621Z,5.03
2023-05-10T02:39:05.626Z,4.95
2023-05-10T02:46:24.018Z,5.47
2023-05-10T02:53:45.066Z,5.03
2023-05-10T03:01:04.990Z,4.65
2023-05-10T03:08:23.244Z,5.10
2023-05-10T03:15:50.944Z,5.05
2023-05-10T03:23:15.007Z,5.05
2023-05-10T03:30:33.261Z,5.50
2023-05-10T03:37:51.856Z,5.32
2023-05-10T03:45:12.521Z,5.25
2023-05-10T03:52:30.712Z,5.82
2023-05-10T03:59:48.962Z,4.57
2023-05-10T04:07:08.853Z,4.90
2023-05-10T04:14:27.123Z,5.18
2023-05-10T04:21:45.286Z,4.88
2023-05-10T04:29:04.996Z,4.75
2023-05-10T04:36:23.217Z,5.32
2023-05-10T04:43:41.627Z,5.20
2023-05-10T04:51:01.412Z,5.15
2023-05-10T04:58:19.594Z,5.15
2023-05-10T05:05:37.893Z,4.70
2023-05-10T05:12:57.686Z,4.57
2023-05-10T05:20:16.448Z,5.15
2023-05-10T05:27:34.974Z,5.32
2023-05-10T05:34:54.701Z,4.35
2023-05-10T05:42:13.154Z,4.30
2023-05-10T05:49:31.364Z,4.55
2023-05-10T05:56:51.196Z,4.00
2023-05-10T06:04:10.008Z,4.13
2023-05-10T06:11:28.428Z,3.92
2023-05-10T06:18:48.840Z,4.07
2023-05-10T06:26:07.390Z,4.40
2023-05-10T06:33:25.890Z,3.78
2023-05-10T06:40:45.661Z,4.55
2023-05-10T06:48:03.912Z,4.05
2023-05-10T06:55:22.235Z,3.33
2023-05-10T07:02:41.787Z,3.78
2023-05-10T07:10:00.226Z,3.45
2023-05-10T07:17:18.417Z,3.92
2023-05-10T07:24:38.402Z,3.22
2023-05-10T07:31:58.706Z,2.90
2023-05-10T07:39:26.494Z,3.33
2023-05-10T07:46:46.935Z,3.10
2023-05-10T07:54:05.273Z,3.08
2023-05-10T08:01:23.817Z,3.65
2023-05-10T08:08:43.362Z,3.35
2023-05-10T08:16:01.703Z,3.40
2023-05-10T08:23:19.877Z,3.17
2023-05-10T08:30:39.395Z,3.58
2023-05-10T08:37:57.510Z,3.08
2023-05-10T08:45:16.315Z,3.15
2023-05-10T08:52:40.916Z,2.92
2023-05-10T08:59:59.118Z,2.65
2023-05-10T09:07:17.730Z,2.38
2023-05-10T09:14:38.193Z,3.00
2023-05-10T09:21:56.954Z,2.70
2023-05-10T09:29:17.232Z,2.38
2023-05-10T09:36:37.067Z,2.47
2023-05-10T09:43:58.298Z,3.47
2023-05-10T09:51:22.939Z,2.70
2023-05-10T09:58:42.564Z,3.25
2023-05-10T10:06:00.596Z,2.80
2023-05-10T10:13:18.823Z,2.88
2023-05-10T10:20:39.833Z,2.60
2023-05-10T10:28:08.377Z,2.42
2023-05-10T10:35:26.782Z,3.00
2023-05-10T10:42:50.969Z,2.50
2023-05-10T10:50:10.521Z,2.70
2023-05-10T10:57:31.163Z,2.45
2023-05-10T11:04:50.618Z,2.75
2023-05-10T11:12:11.091Z,3.10
2023-05-10T11:19:29.973Z,2.80
2023-05-10T11:26:52.394Z,2.58
2023-05-10T11:34:10.915Z,2.73
2023-05-10T11:41:31.437Z,2.38
2023-05-10T11:48:52.360Z,2.45
2023-05-10T11:56:11.648Z,2.53
2023-05-10T12:03:30.220Z,2.38
2023-05-10T12:10:49.902Z,2.28
2023-05-10T12:18:08.110Z,2.20
2023-05-10T12:25:32.440Z,2.58
2023-05-10T12:32:52.520Z,2.05
2023-05-10T12:40:12.265Z,2.30
2023-05-10T12:47:30.611Z,2.10
2023-05-10T12:54:50.527Z,1.92
2023-05-10T13:02:09.356Z,2.08
2023-05-10T13:09:30.591Z,2.28
2023-05-10T13:16:52.094Z,1.58
2023-05-10T13:24:11.753Z,1.80
2023-05-10T13:31:31.835Z,1.65
2023-05-10T13:38:51.734Z,1.80
2023-05-10T13:46:10.284Z,1.90
2023-05-10T13:53:29.386Z,1.80
2023-05-10T14:00:49.498Z,2.00
2023-05-10T14:08:10.689Z,1.52
2023-05-10T14:15:29.918Z,1.88
2023-05-10T14:22:49.692Z,1.60
2023-05-10T14:30:10.735Z,1.90
2023-05-10T14:37:29.029Z,1.83
2023-05-10T14:44:49.007Z,1.60
2023-05-10T14:52:07.489Z,1.40
2023-05-10T14:59:26.367Z,1.60
2023-05-10T15:06:46.552Z,1.65
2023-05-10T15:14:05.084Z,1.63
2023-05-10T15:21:24.045Z,1.80
2023-05-10T15:28:44.067Z,1.52
2023-05-10T15:36:02.413Z,1.70
2023-05-10T15:43:20.864Z,2.00
2023-05-10T15:50:41.769Z,1.67
2023-05-10T15:58:01.879Z,2.22
2023-05-10T16:05:21.073Z,1.83
2023-05-10T16:12:41.010Z,1.65
2023-05-10T16:19:59.428Z,1.92
2023-05-10T16:27:18.922Z,2.25
2023-05-10T16:34:38.868Z,2.03
2023-05-10T16:41:58.874Z,2.25
2023-05-10T16:49:17.515Z,2.85
2023-05-10T16:56:40.442Z,2.80
2023-05-10T17:03:59.577Z,2.20
2023-05-10T17:11:20.038Z,2.25
2023-05-10T17:18:40.127Z,2.50
2023-05-10T17:26:00.224Z,3.00
2023-05-10T17:33:20.085Z,2.63
2023-05-10T17:40:42.061Z,2.47
2023-05-10T17:48:00.626Z,3.33
2023-05-10T17:55:19.752Z,5.18
2023-05-10T18:02:40.269Z,3.92
2023-05-10T18:09:59.157Z,4.07
2023-05-10T18:17:18.925Z,3.97
2023-05-10T18:24:40.411Z,4.45
2023-05-10T18:32:01.036Z,3.85
2023-05-10T18:39:19.526Z,3.78
2023-05-10T18:46:39.713Z,4.93
2023-05-10T18:53:59.165Z,3.85
2023-05-10T19:01:21.805Z,4.60
2023-05-10T19:08:44.531Z,4.82
2023-05-10T19:16:07.036Z,4.53
2023-05-10T19:23:29.772Z,6.20
2023-05-10T19:30:55.566Z,5.97
2023-05-10T19:38:13.868Z,5.20
2023-05-10T19:45:38.991Z,5.80
2023-05-10T19:53:01.116Z,5.90
2023-05-10T20:00:20.099Z,5.15
2023-05-10T20:07:38.304Z,5.10
2023-05-10T20:14:58.277Z,5.65
2023-05-10T20:22:16.678Z,6.43
2023-05-10T20:29:35.157Z,5.90
2023-05-10T20:36:55.112Z,6.18
2023-05-10T20:44:13.467Z,5.97
2023-05-10T20:51:33.465Z,5.47
2023-05-10T20:58:53.513Z,5.28
2023-05-10T21:06:12.303Z,4.50
2023-05-10T21:13:30.678Z,4.30
2023-05-10T21:20:50.824Z,4.32
2023-05-10T21:28:09.083Z,4.80
2023-05-10T21:35:27.942Z,4.80
2023-05-10T21:42:49.654Z,5.15
2023-05-10T21:50:11.241Z,4.47
2023-05-10T21:57:30.858Z,4.00
2023-05-10T22:04:53.835Z,3.90
2023-05-10T22:12:12.499Z,4.38
2023-05-10T22:19:30.906Z,4.18
2023-05-10T22:26:50.782Z,3.72
2023-05-10T22:34:09.050Z,3.80
2023-05-10T22:41:27.493Z,4.05
2023-05-10T22:48:47.059Z,3.72
2023-05-10T22:56:05.420Z,3.63
2023-05-10T23:03:23.651Z,3.60
2023-05-10T23:10:43.567Z,3.90
2023-05-10T23:18:01.957Z,3.63
2023-05-10T23:25:20.432Z,3.83
2023-05-10T23:32:40.406Z,5.00
2023-05-10T23:39:58.629Z,4.63
2023-05-10T23:47:16.748Z,4.53
2023-05-10T23:54:36.643Z,3.95
